Time;durP1;ratioP1;P1;durP2;ratioP2;P2;SDS_P1;SDS_P2;PMS_P1;PMS_P2;Temp;Humidity;BMP_temperature;BMP_pressure;BME280_temperature;BME280_humidity;BME280_pressure;Samples;Min_cycle;Max_cycle;Signal;HPM_P1;HPM_P2
2022/11/17 00:00:26;;;;;;;1.95;1.15;;;21.30;61.20;;;;;;4968369;28;92670;-82
2022/11/17 00:02:52;;;;;;;2.25;1.02;;;21.30;61.40;;;;;;4967708;28;92071;-82
2022/11/17 00:05:17;;;;;;;2.55;1.30;;;21.30;61.30;;;;;;4966609;28;93626;-82
2022/11/17 00:07:44;;;;;;;3.55;0.98;;;21.30;61.30;;;;;;4967283;28;93014;-81
2022/11/17 00:10:11;;;;;;;3.35;1.30;;;21.30;61.20;;;;;;4967344;28;92573;-82
2022/11/17 00:15:21;;;;;;;3.20;1.25;;;21.30;61.40;;;;;;4967511;28;96640;-82
2022/11/17 00:21:17;;;;;;;1.75;0.93;;;21.20;61.30;;;;;;4966955;28;92692;-82
2022/11/17 00:26:22;;;;;;;2.08;1.05;;;21.20;61.50;;;;;;4925491;28;95037;-82
2022/11/17 00:28:55;;;;;;;2.20;1.23;;;21.20;61.40;;;;;;4924499;28;97184;-82
2022/11/17 00:34:12;;;;;;;1.58;1.20;;;21.20;61.60;;;;;;4924992;28;92848;-82
2022/11/17 00:36:41;;;;;;;1.60;0.82;;;21.20;61.40;;;;;;4924290;28;93490;-82
2022/11/17 00:39:08;;;;;;;;;;;21.20;61.30;;;;;;4924152;28;98179;-82
2022/11/17 00:41:33;;;;;;;1.55;0.80;;;21.20;61.40;;;;;;4926555;28;92933;-82
2022/11/17 00:43:59;;;;;;;2.38;1.10;;;21.20;61.40;;;;;;4925226;28;92384;-82
2022/11/17 00:46:25;;;;;;;2.30;1.17;;;21.10;61.40;;;;;;4924474;28;97801;-82
2022/11/17 00:48:50;;;;;;;2.10;1.05;;;21.10;61.50;;;;;;4924357;28;94372;-82
2022/11/17 00:51:16;;;;;;;2.08;1.10;;;21.10;61.40;;;;;;4925481;28;92696;-81
2022/11/17 00:53:42;;;;;;;2.03;1.10;;;21.10;61.50;;;;;;4925432;28;93706;-82
2022/11/17 00:56:07;;;;;;;2.60;0.90;;;21.10;61.40;;;;;;4924022;28;93111;-81
2022/11/17 00:58:34;;;;;;;3.30;1.08;;;21.10;61.40;;;;;;4924495;28;93326;-82
2022/11/17 01:01:00;;;;;;;1.20;0.80;;;21.10;61.40;;;;;;4924926;28;92553;-82
2022/11/17 01:03:25;;;;;;;1.50;1.10;;;21.10;61.30;;;;;;4930026;28;92005;-82
2022/11/17 01:05:51;;;;;;;1.52;0.90;;;21.10;61.40;;;;;;4966591;28;92618;-82
2022/11/17 01:08:17;;;;;;;1.50;0.85;;;21.10;61.40;;;;;;4966445;28;92545;-81
2022/11/17 01:10:42;;;;;;;1.63;0.88;;;21.10;61.50;;;;;;4965898;28;93383;-82
2022/11/17 01:13:08;;;;;;;2.30;0.93;;;21.10;61.40;;;;;;4966314;28;92445;-82
2022/11/17 01:15:33;;;;;;;1.30;0.98;;;21.10;61.40;;;;;;4967101;28;93495;-82
2022/11/17 01:17:59;;;;;;;1.67;1.00;;;21.10;61.60;;;;;;4966411;28;92794;-81
2022/11/17 01:20:25;;;;;;;1.20;0.85;;;21.10;61.60;;;;;;4967059;28;92431;-81
2022/11/17 01:22:53;;;;;;;1.52;1.02;;;21.00;61.60;;;;;;4966326;28;92000;-82
2022/11/17 01:25:19;;;;;;;1.63;1.05;;;21.00;61.60;;;;;;4966231;28;93354;-82
2022/11/17 01:27:45;;;;;;;2.00;0.90;;;21.00;61.70;;;;;;4998132;28;94587;-81
2022/11/17 01:30:11;;;;;;;1.65;1.00;;;21.00;61.50;;;;;;4967121;28;92329;-82
2022/11/17 01:32:37;;;;;;;1.27;0.80;;;21.00;61.60;;;;;;4965997;28;92053;-83
2022/11/17 01:35:02;;;;;;;0.88;0.70;;;21.00;61.80;;;;;;4964894;28;94366;-82
2022/11/17 01:37:28;;;;;;;1.15;0.73;;;21.00;61.70;;;;;;4965870;28;93771;-82
2022/11/17 01:39:54;;;;;;;2.05;1.15;;;21.00;61.60;;;;;;4965427;28;94405;-81
2022/11/17 01:42:25;;;;;;;1.73;1.05;;;21.00;61.70;;;;;;4966372;28;92455;-82
2022/11/17 01:44:59;;;;;;;1.15;0.73;;;21.00;61.70;;;;;;4966010;28;93086;-81
2022/11/17 01:47:27;;;;;;;2.45;1.02;;;21.00;61.60;;;;;;4965867;28;92866;-81
2022/11/17 01:49:58;;;;;;;2.03;0.77;;;21.00;61.70;;;;;;4965535;28;92699;-82
2022/11/17 01:52:24;;;;;;;1.40;0.80;;;21.00;61.50;;;;;;4965597;28;91661;-81
2022/11/17 01:54:52;;;;;;;1.67;1.08;;;20.90;61.50;;;;;;4965504;28;93342;-82
2022/11/17 01:57:23;;;;;;;1.42;1.00;;;21.00;61.50;;;;;;4966591;28;92473;-81
2022/11/17 01:59:56;;;;;;;1.40;0.88;;;20.90;61.50;;;;;;4965300;28;92873;-81
2022/11/17 02:02:22;;;;;;;1.33;0.93;;;20.90;61.50;;;;;;4965209;28;92016;-82
2022/11/17 02:05:00;;;;;;;1.52;0.95;;;20.90;61.60;;;;;;4965079;28;92678;-82
2022/11/17 02:07:29;;;;;;;1.38;0.88;;;20.90;61.70;;;;;;4965453;28;93347;-81
2022/11/17 02:09:55;;;;;;;1.15;0.85;;;20.90;61.60;;;;;;4965750;28;92040;-81
2022/11/17 02:12:24;;;;;;;1.85;1.00;;;20.90;61.70;;;;;;4966934;28;92421;-82
2022/11/17 02:14:51;;;;;;;2.00;1.00;;;20.90;61.70;;;;;;4965424;28;93926;-81
2022/11/17 02:17:18;;;;;;;1.40;0.70;;;20.90;61.60;;;;;;4965615;28;91822;-81
2022/11/17 02:19:55;;;;;;;2.58;1.05;;;20.90;62.20;;;;;;4965683;28;92534;-82
2022/11/17 02:22:51;;;;;;;1.60;0.90;;;20.80;61.70;;;;;;4965304;28;92856;-81
2022/11/17 02:25:52;;;;;;;1.50;0.80;;;20.90;61.80;;;;;;4996952;28;95629;-82
2022/11/17 02:28:27;;;;;;;2.25;0.80;;;20.90;61.70;;;;;;4965117;28;93885;-82
2022/11/17 02:31:14;;;;;;;1.67;0.90;;;20.90;61.60;;;;;;4964076;28;92438;-82
2022/11/17 02:34:04;;;;;;;0.77;0.60;;;20.90;61.60;;;;;;4964678;28;92450;-81
2022/11/17 02:37:00;;;;;;;0.82;0.60;;;20.80;61.50;;;;;;4966324;28;94389;-82
2022/11/17 02:39:46;;;;;;;0.85;0.68;;;20.80;61.60;;;;;;4965556;28;98411;-82
2022/11/17 02:45:24;;;;;;;1.52;0.93;;;20.80;61.50;;;;;;4965515;28;91382;-82
2022/11/17 02:47:53;;;;;;;0.90;0.70;;;20.80;61.60;;;;;;4963944;28;97194;-81
2022/11/17 02:50:20;;;;;;;;;;;20.80;61.60;;;;;;4965242;28;92644;-82
2022/11/17 02:52:46;;;;;;;1.73;1.00;;;20.80;61.40;;;;;;4966418;28;92975;-81
2022/11/17 02:55:13;;;;;;;0.88;0.60;;;20.80;61.40;;;;;;4965691;28;93322;-82
2022/11/17 02:57:40;;;;;;;0.68;0.43;;;20.80;61.60;;;;;;4965388;28;92942;-82
2022/11/17 03:00:10;;;;;;;0.98;0.82;;;20.80;61.60;;;;;;4965047;28;97675;-81
2022/11/17 03:02:57;;;;;;;1.02;0.80;;;20.80;61.60;;;;;;4965511;28;92755;-81
2022/11/17 03:05:28;;;;;;;1.50;0.90;;;20.80;61.60;;;;;;4967939;28;92413;-82
2022/11/17 03:07:57;;;;;;;1.27;0.95;;;20.80;61.50;;;;;;4968450;28;93632;-81
2022/11/17 03:10:37;;;;;;;1.05;0.57;;;20.80;61.60;;;;;;4967986;28;93308;-82
2022/11/17 03:13:19;;;;;;;1.27;0.80;;;20.80;61.60;;;;;;4968498;28;92429;-81
2022/11/17 03:15:55;;;;;;;1.13;0.82;;;20.70;61.60;;;;;;4968240;28;92513;-82
2022/11/17 03:18:34;;;;;;;1.15;0.70;;;20.70;61.60;;;;;;4968080;28;94074;-82
2022/11/17 03:21:13;;;;;;;1.93;1.03;;;20.70;61.70;;;;;;4968044;28;94146;-81
2022/11/17 03:23:48;;;;;;;1.25;0.75;;;20.70;61.70;;;;;;4999525;28;92188;-82
2022/11/17 03:26:19;;;;;;;1.42;0.63;;;20.70;61.70;;;;;;4968811;28;92764;-82
2022/11/17 03:28:45;;;;;;;0.88;0.73;;;20.70;61.60;;;;;;4968452;28;93366;-81
2022/11/17 03:31:13;;;;;;;1.27;1.00;;;20.70;61.60;;;;;;4967430;28;92977;-82
2022/11/17 03:33:42;;;;;;;1.23;0.80;;;20.70;61.60;;;;;;4969096;28;92246;-82
2022/11/17 03:36:14;;;;;;;1.50;0.67;;;20.70;61.70;;;;;;4968943;28;91856;-82
2022/11/17 03:38:50;;;;;;;1.25;0.88;;;20.70;61.80;;;;;;4965963;28;96031;-82
2022/11/17 03:41:18;;;;;;;0.73;0.63;;;20.70;61.90;;;;;;4967343;28;93864;-81
2022/11/17 03:43:47;;;;;;;1.08;0.70;;;20.70;61.90;;;;;;4967712;28;92893;-81
2022/11/17 03:46:15;;;;;;;0.80;0.70;;;20.70;61.80;;;;;;4967050;28;92627;-81
2022/11/17 03:49:02;;;;;;;0.90;0.70;;;20.70;61.70;;;;;;4967714;28;94735;-82
2022/11/17 03:51:30;;;;;;;0.60;0.50;;;20.60;61.80;;;;;;4968582;28;92747;-82
2022/11/17 03:53:56;;;;;;;1.17;0.70;;;20.70;61.80;;;;;;4967916;28;92128;-82
2022/11/17 03:56:44;;;;;;;0.77;0.70;;;20.60;61.70;;;;;;4967290;28;92381;-82
2022/11/17 03:59:10;;;;;;;1.50;0.93;;;20.70;61.80;;;;;;4967800;28;94393;-82
2022/11/17 04:01:36;;;;;;;1.00;0.70;;;20.70;61.60;;;;;;4967680;28;92767;-82
2022/11/17 04:04:01;;;;;;;1.48;0.73;;;20.60;61.50;;;;;;4967778;28;92340;-82
2022/11/17 04:06:27;;;;;;;1.95;0.93;;;20.60;61.60;;;;;;4969054;28;92020;-81
2022/11/17 04:08:52;;;;;;;1.17;0.65;;;20.60;61.70;;;;;;4966865;28;93996;-81
2022/11/17 04:16:46;;;;;;;1.95;1.00;;;20.60;61.80;;;;;;4967759;28;92519;-82
2022/11/17 04:19:12;;;;;;;1.17;0.60;;;20.60;61.80;;;;;;4967530;28;94637;-81
2022/11/17 04:21:38;;;;;;;0.73;0.63;;;20.60;61.70;;;;;;4967762;28;93842;-82
2022/11/17 04:24:03;;;;;;;1.80;0.80;;;20.60;61.60;;;;;;4967579;28;92035;-82
2022/11/17 04:29:13;;;;;;;1.33;0.75;;;20.60;61.70;;;;;;4966741;28;92382;-81
2022/11/17 04:31:39;;;;;;;1.52;1.05;;;20.50;61.50;;;;;;4966854;28;93103;-82
2022/11/17 04:34:05;;;;;;;1.40;0.90;;;20.50;61.60;;;;;;4965209;28;93639;-81
2022/11/17 04:36:44;;;;;;;1.25;0.70;;;20.60;61.60;;;;;;4967814;28;92204;-81
2022/11/17 04:39:11;;;;;;;;;;;20.50;61.70;;;;;;4980617;28;97903;-82
2022/11/17 04:44:26;;;;;;;0.70;0.50;;;20.50;61.60;;;;;;4966839;28;92428;-82
2022/11/17 04:46:53;;;;;;;1.42;0.80;;;20.50;61.70;;;;;;4966321;28;92433;-82
2022/11/17 04:49:20;;;;;;;1.15;0.60;;;20.60;61.60;;;;;;4966431;28;93206;-81
2022/11/17 04:51:46;;;;;;;1.10;0.60;;;20.50;61.50;;;;;;4966488;28;94248;-81
2022/11/17 04:54:15;;;;;;;1.60;0.90;;;20.50;61.70;;;;;;4967828;28;91949;-82
2022/11/17 04:56:41;;;;;;;1.05;0.75;;;20.50;61.60;;;;;;4967318;28;92546;-82
2022/11/17 04:59:07;;;;;;;1.17;0.85;;;20.50;61.90;;;;;;4965752;28;95821;-81
2022/11/17 05:01:33;;;;;;;1.17;0.80;;;20.50;61.70;;;;;;4964859;28;96314;-82
2022/11/17 05:04:04;;;;;;;1.45;0.75;;;20.50;61.60;;;;;;4966902;28;92163;-81
2022/11/17 05:06:31;;;;;;;1.45;0.80;;;20.50;61.60;;;;;;4967140;28;93122;-82
2022/11/17 05:08:58;;;;;;;1.50;0.90;;;20.50;61.80;;;;;;4966527;28;92726;-82
2022/11/17 05:14:12;;;;;;;1.42;0.80;;;20.50;61.80;;;;;;4952660;28;92578;-82
2022/11/17 05:19:26;;;;;;;1.58;0.80;;;20.50;62.10;;;;;;4953009;28;92526;-81
2022/11/17 05:21:54;;;;;;;;;;;20.40;61.90;;;;;;4952118;28;92779;-81
2022/11/17 05:24:20;;;;;;;1.45;0.70;;;20.50;62.00;;;;;;4953672;28;93151;-82
2022/11/17 05:26:47;;;;;;;1.45;0.80;;;20.50;62.20;;;;;;4950522;28;91973;-82
2022/11/17 05:29:16;;;;;;;1.42;0.80;;;20.40;61.90;;;;;;4950665;28;94392;-82
2022/11/17 05:31:42;;;;;;;1.35;0.80;;;20.40;61.90;;;;;;4952919;28;93282;-81
2022/11/17 05:34:09;;;;;;;1.48;1.10;;;20.50;62.00;;;;;;4952886;28;92401;-81
2022/11/17 05:36:35;;;;;;;1.55;0.85;;;20.40;61.80;;;;;;4951458;28;92724;-81
2022/11/17 05:39:01;;;;;;;1.00;0.60;;;20.40;61.90;;;;;;4950976;28;93758;-81
2022/11/17 05:41:27;;;;;;;1.35;0.60;;;20.40;62.00;;;;;;4954679;28;92799;-82
2022/11/17 05:43:53;;;;;;;2.63;0.60;;;20.40;62.10;;;;;;4966620;28;92714;-82
2022/11/17 05:46:20;;;;;;;1.52;0.63;;;20.50;62.00;;;;;;4965940;28;92411;-81
2022/11/17 05:48:48;;;;;;;0.90;0.77;;;20.60;61.70;;;;;;4964525;28;94126;-82
2022/11/17 05:51:15;;;;;;;0.82;0.65;;;20.50;61.50;;;;;;4967429;28;95673;-82
2022/11/17 05:53:41;;;;;;;0.93;0.57;;;20.50;61.60;;;;;;4966357;28;92503;-82
2022/11/17 05:56:28;;;;;;;0.95;0.70;;;20.60;60.70;;;;;;4967301;28;92264;-82
2022/11/17 05:59:00;;;;;;;1.92;0.80;;;20.50;61.40;;;;;;4966045;28;92953;-81
2022/11/17 06:01:27;;;;;;;4.68;0.85;;;20.40;61.60;;;;;;4965583;28;92787;-82
2022/11/17 06:03:56;;;;;;;1.92;0.90;;;20.50;62.30;;;;;;4966553;28;92478;-82
2022/11/17 06:06:22;;;;;;;1.97;1.03;;;20.40;62.30;;;;;;4967091;28;91900;-82
2022/11/17 06:08:49;;;;;;;2.55;0.90;;;20.40;62.60;;;;;;4966435;28;93169;-82
2022/11/17 06:11:15;;;;;;;1.30;0.65;;;20.40;62.90;;;;;;4966356;28;95018;-82
2022/11/17 06:13:41;;;;;;;0.85;0.55;;;20.40;62.90;;;;;;4966181;28;93526;-83
2022/11/17 06:16:10;;;;;;;1.10;0.85;;;20.40;63.10;;;;;;4966675;28;92384;-83
2022/11/17 06:19:02;;;;;;;1.75;0.80;;;20.40;63.10;;;;;;4966679;28;93437;-83
2022/11/17 06:21:28;;;;;;;1.00;0.60;;;20.40;63.10;;;;;;4965925;28;96564;-82
2022/11/17 06:23:54;;;;;;;1.08;0.80;;;20.30;63.00;;;;;;4966359;28;92379;-82
2022/11/17 06:26:19;;;;;;;1.73;0.73;;;20.30;63.30;;;;;;4967000;28;92172;-83
2022/11/17 06:28:47;;;;;;;1.05;0.65;;;20.40;64.10;;;;;;4966224;28;93058;-82
2022/11/17 06:31:14;;;;;;;1.38;0.77;;;20.30;63.10;;;;;;4969413;28;94350;-82
2022/11/17 06:33:40;;;;;;;1.25;0.73;;;20.30;63.10;;;;;;4967247;28;92042;-82
2022/11/17 06:36:07;;;;;;;1.75;0.77;;;20.30;63.40;;;;;;4967438;28;91995;-82
2022/11/17 06:38:34;;;;;;;1.05;0.82;;;20.30;63.40;;;;;;4966283;28;94021;-82
2022/11/17 06:41:03;;;;;;;1.90;0.80;;;20.30;63.40;;;;;;4968291;28;93977;-82
2022/11/17 06:43:30;;;;;;;0.75;0.60;;;20.30;63.30;;;;;;4970429;28;92444;-83
2022/11/17 06:45:55;;;;;;;1.92;0.82;;;20.30;63.20;;;;;;4969150;28;91998;-83
2022/11/17 06:48:25;;;;;;;1.45;0.70;;;20.30;63.30;;;;;;4969450;28;92992;-83
2022/11/17 06:50:54;;;;;;;2.30;0.77;;;20.30;63.30;;;;;;4969078;28;92952;-83
2022/11/17 06:53:25;;;;;;;5.07;0.93;;;20.40;63.10;;;;;;4969430;28;91984;-83
2022/11/17 06:56:10;;;;;;;1.15;0.70;;;20.40;63.00;;;;;;4985221;28;91403;-83
2022/11/17 06:58:37;;;;;;;1.73;0.80;;;20.40;63.60;;;;;;4986545;28;94136;-83
2022/11/17 07:01:07;;;;;;;1.08;0.65;;;20.40;63.50;;;;;;4984677;28;93338;-83
2022/11/17 07:03:34;;;;;;;1.20;0.63;;;20.40;63.60;;;;;;4986103;28;93257;-83
2022/11/17 07:06:01;;;;;;;1.80;0.77;;;20.40;63.60;;;;;;4985630;28;92466;-84
2022/11/17 07:08:27;;;;;;;1.90;1.00;;;20.40;63.70;;;;;;4985921;28;93316;-83
2022/11/17 07:10:53;;;;;;;1.10;0.70;;;20.30;63.90;;;;;;4985369;28;94908;-83
2022/11/17 07:13:23;;;;;;;1.38;0.75;;;20.30;63.90;;;;;;4986258;28;92640;-82
2022/11/17 07:15:50;;;;;;;1.63;0.82;;;20.20;64.00;;;;;;4985363;28;92704;-83
2022/11/17 07:18:17;;;;;;;1.63;0.73;;;20.20;64.00;;;;;;4986252;28;94947;-84
2022/11/17 07:20:43;;;;;;;4.03;0.70;;;20.20;63.90;;;;;;4986938;28;92405;-84
2022/11/17 07:23:09;;;;;;;2.55;1.00;;;20.20;63.90;;;;;;4986143;28;92753;-83
2022/11/17 07:25:35;;;;;;;2.42;0.60;;;20.20;63.80;;;;;;4986580;28;92532;-84
2022/11/17 07:28:00;;;;;;;2.63;0.70;;;20.20;63.80;;;;;;4969022;28;94047;-83
2022/11/17 07:30:26;;;;;;;1.60;0.80;;;20.20;63.80;;;;;;4969472;28;94149;-83
2022/11/17 07:32:51;;;;;;;4.78;0.98;;;20.20;63.60;;;;;;4969137;28;92520;-83
2022/11/17 07:35:18;;;;;;;3.60;1.00;;;20.20;63.50;;;;;;4968921;28;92556;-83
2022/11/17 07:37:43;;;;;;;1.95;0.70;;;20.20;63.50;;;;;;4966042;28;96368;-83
2022/11/17 07:40:09;;;;;;;2.58;0.80;;;20.20;63.40;;;;;;4969160;28;92823;-83
2022/11/17 07:42:35;;;;;;;1.23;0.70;;;20.20;63.40;;;;;;4969664;28;92376;-82
2022/11/17 07:45:00;;;;;;;1.42;0.70;;;20.20;63.30;;;;;;4968984;28;91245;-83
2022/11/17 07:47:26;;;;;;;1.73;0.80;;;20.20;63.30;;;;;;4968442;28;93836;-83
2022/11/17 07:49:52;;;;;;;1.23;0.90;;;20.20;63.30;;;;;;4967527;28;92832;-83
2022/11/17 07:52:17;;;;;;;2.13;0.90;;;20.30;62.80;;;;;;4969699;28;93262;-83
2022/11/17 07:54:43;;;;;;;1.90;0.80;;;20.40;62.50;;;;;;4975774;28;92421;-83
2022/11/17 07:57:08;;;;;;;3.25;0.80;;;20.60;62.00;;;;;;4967786;28;93462;-83
2022/11/17 07:59:34;;;;;;;5.70;0.85;;;20.70;61.40;;;;;;4967793;28;93945;-83
2022/11/17 08:02:00;;;;;;;4.15;0.77;;;20.90;60.40;;;;;;4967365;28;92275;-82
2022/11/17 08:04:25;;;;;;;1.83;0.80;;;20.90;59.80;;;;;;4967814;28;92298;-83
2022/11/17 08:06:51;;;;;;;2.83;0.93;;;20.90;59.80;;;;;;4998236;28;96392;-83
2022/11/17 08:09:19;;;;;;;2.30;0.90;;;20.90;59.80;;;;;;4969153;28;92276;-83
2022/11/17 08:11:45;;;;;;;3.77;0.90;;;20.80;60.10;;;;;;4966874;28;93519;-84
2022/11/17 08:14:11;;;;;;;6.93;0.90;;;20.80;60.40;;;;;;4968083;28;92648;-84
2022/11/17 08:16:36;;;;;;;3.15;0.98;;;20.80;60.80;;;;;;4965611;28;93617;-84
2022/11/17 08:19:04;;;;;;;4.13;1.02;;;20.90;61.10;;;;;;4967961;28;93706;-83
2022/11/17 08:21:30;;;;;;;3.03;0.82;;;20.90;61.00;;;;;;4966733;28;92552;-84
2022/11/17 08:23:56;;;;;;;5.13;1.38;;;21.00;61.00;;;;;;4966969;28;92688;-83
2022/11/17 08:26:24;;;;;;;6.00;1.48;;;21.00;61.20;;;;;;4965460;28;93586;-84
2022/11/17 08:28:50;;;;;;;4.88;1.13;;;21.00;61.10;;;;;;4965161;28;92835;-82
2022/11/17 08:31:16;;;;;;;6.18;1.30;;;21.10;61.10;;;;;;4966154;28;92146;-83
2022/11/17 08:33:41;;;;;;;3.97;1.50;;;21.20;61.10;;;;;;4965784;28;91490;-83
2022/11/17 08:36:07;;;;;;;4.03;1.13;;;21.20;60.60;;;;;;4966600;28;93465;-83
2022/11/17 08:38:33;;;;;;;3.05;1.30;;;21.30;61.10;;;;;;4964215;28;92384;-83
2022/11/17 08:41:04;;;;;;;5.60;1.55;;;21.30;60.80;;;;;;4963656;28;93857;-82
2022/11/17 08:43:30;;;;;;;6.18;1.42;;;21.40;61.40;;;;;;4963868;28;92873;-82
2022/11/17 08:45:55;;;;;;;5.53;1.45;;;21.30;60.50;;;;;;4966874;28;93343;-82
2022/11/17 08:48:22;;;;;;;4.32;1.30;;;21.40;60.10;;;;;;4983120;28;95740;-83
2022/11/17 08:50:49;;;;;;;6.60;1.92;;;21.40;60.50;;;;;;4948994;28;92715;-82
2022/11/17 08:53:17;;;;;;;5.20;1.50;;;21.30;60.60;;;;;;4993796;28;92099;-82
2022/11/17 08:55:44;;;;;;;4.27;1.30;;;21.40;60.70;;;;;;4971710;28;93442;-83
2022/11/17 08:58:11;;;;;;;6.43;1.23;;;21.40;60.30;;;;;;4966506;28;96707;-83
2022/11/17 09:00:37;;;;;;;4.95;1.48;;;21.40;60.80;;;;;;4963880;28;92552;-83
2022/11/17 09:03:10;;;;;;;3.95;1.40;;;21.50;60.80;;;;;;4965478;28;92581;-82
2022/11/17 09:05:40;;;;;;;3.63;1.33;;;21.40;60.90;;;;;;4966177;28;94031;-82
2022/11/17 09:08:06;;;;;;;3.85;1.48;;;21.50;61.00;;;;;;4966745;28;94344;-83
2022/11/17 09:10:32;;;;;;;4.85;1.17;;;21.50;61.10;;;;;;4966637;28;92658;-82
2022/11/17 09:12:58;;;;;;;9.75;2.15;;;21.40;61.20;;;;;;4967911;28;92665;-82
2022/11/17 09:15:24;;;;;;;7.18;2.40;;;21.50;61.80;;;;;;4965318;28;95247;-82
2022/11/17 09:17:50;;;;;;;9.02;2.78;;;21.50;61.00;;;;;;4967146;28;93345;-82
2022/11/17 09:20:17;;;;;;;11.75;3.05;;;21.50;61.00;;;;;;4966614;28;92722;-81
2022/11/17 09:22:44;;;;;;;10.63;2.95;;;21.50;61.40;;;;;;4966176;28;92748;-83
2022/11/17 09:25:10;;;;;;;16.60;3.60;;;21.50;60.90;;;;;;4965974;28;93198;-82
2022/11/17 09:27:35;;;;;;;14.13;3.17;;;21.60;60.90;;;;;;4967081;28;93340;-82
2022/11/17 09:30:01;;;;;;;16.85;3.50;;;21.60;60.90;;;;;;4966301;28;93502;-83
2022/11/17 09:32:27;;;;;;;13.95;3.10;;;21.50;61.00;;;;;;4966288;28;92103;-82
2022/11/17 09:34:52;;;;;;;12.98;3.05;;;21.50;61.10;;;;;;4997258;28;95443;-82
2022/11/17 09:37:19;;;;;;;12.65;2.97;;;21.50;61.10;;;;;;4966289;28;93313;-83
2022/11/17 09:39:45;;;;;;;19.90;4.03;;;21.50;61.10;;;;;;4967764;28;92418;-82
2022/11/17 09:42:17;;;;;;;12.13;3.50;;;21.50;61.10;;;;;;4966885;28;91986;-82
2022/11/17 09:44:50;;;;;;;12.23;3.75;;;21.50;61.00;;;;;;4966118;28;94216;-83
2022/11/17 09:47:41;;;;;;;11.52;3.33;;;21.50;61.30;;;;;;4965145;28;92367;-82
2022/11/17 09:50:26;;;;;;;15.15;4.07;;;21.50;61.20;;;;;;4965787;28;91970;-82
2022/11/17 09:53:20;;;;;;;14.00;3.58;;;21.50;61.10;;;;;;4966301;28;92225;-82
2022/11/17 09:56:00;;;;;;;12.85;3.88;;;21.50;61.00;;;;;;4965148;28;94817;-82
2022/11/17 09:58:36;;;;;;;9.68;3.53;;;21.50;61.00;;;;;;4965704;28;93949;-82
2022/11/17 10:01:01;;;;;;;11.48;3.10;;;21.50;60.70;;;;;;4966010;28;92476;-83
2022/11/17 10:03:33;;;;;;;15.95;3.95;;;21.60;60.30;;;;;;4967048;28;92564;-82
2022/11/17 10:06:03;;;;;;;13.25;3.58;;;21.60;60.50;;;;;;4966057;28;94228;-82
2022/11/17 10:08:44;;;;;;;13.93;3.70;;;21.50;60.70;;;;;;4966500;28;92384;-82
2022/11/17 10:11:30;;;;;;;11.73;3.38;;;21.50;61.00;;;;;;4966963;28;92225;-82
2022/11/17 10:13:56;;;;;;;15.27;3.60;;;21.30;61.10;;;;;;4967749;28;91630;-83
2022/11/17 10:16:22;;;;;;;10.20;2.65;;;21.30;61.60;;;;;;4966490;28;92991;-82
2022/11/17 10:18:48;;;;;;;10.63;3.42;;;21.30;61.60;;;;;;4965676;28;93895;-83
2022/11/17 10:21:13;;;;;;;14.55;3.55;;;21.20;61.90;;;;;;4968667;28;93251;-83
2022/11/17 10:23:43;;;;;;;10.80;3.65;;;21.20;61.70;;;;;;4968166;28;92349;-82
2022/11/17 10:26:12;;;;;;;10.13;3.35;;;21.20;61.80;;;;;;4965495;28;93223;-83
2022/11/17 10:28:38;;;;;;;14.05;3.65;;;21.20;61.80;;;;;;4965939;28;93325;-83
2022/11/17 10:31:15;;;;;;;15.65;3.63;;;21.20;61.90;;;;;;4966240;28;92597;-83
2022/11/17 10:33:44;;;;;;;12.77;3.53;;;21.20;61.90;;;;;;4966159;28;92696;-82
2022/11/17 10:36:16;;;;;;;15.40;3.97;;;21.20;61.90;;;;;;4966485;28;95693;-82
2022/11/17 10:38:48;;;;;;;13.27;3.72;;;21.20;62.10;;;;;;4966024;28;93149;-83
2022/11/17 10:41:21;;;;;;;11.85;3.63;;;21.20;62.00;;;;;;4966192;28;92267;-82
2022/11/17 10:44:06;;;;;;;11.55;3.40;;;21.30;61.50;;;;;;4965906;28;92680;-82
2022/11/17 10:46:31;;;;;;;18.02;4.18;;;21.30;61.20;;;;;;4965548;28;93313;-82
2022/11/17 10:49:05;;;;;;;12.95;3.65;;;21.20;61.50;;;;;;4965490;28;93872;-82
2022/11/17 10:51:32;;;;;;;18.13;4.38;;;21.20;61.60;;;;;;4965651;28;92927;-81
2022/11/17 10:54:06;;;;;;;21.55;3.70;;;21.20;61.80;;;;;;4965293;28;92584;-81
2022/11/17 10:56:42;;;;;;;11.55;3.55;;;21.20;61.80;;;;;;4964250;28;93107;-82
2022/11/17 10:59:14;;;;;;;11.63;3.75;;;21.20;62.00;;;;;;4963686;28;93325;-82
2022/11/17 11:01:43;;;;;;;16.80;4.47;;;21.20;61.90;;;;;;4964019;28;92658;-82
2022/11/17 11:04:29;;;;;;;10.63;3.13;;;21.20;62.10;;;;;;4965240;28;91226;-82
2022/11/17 11:07:12;;;;;;;10.40;3.75;;;21.20;62.30;;;;;;4995870;28;96931;-82
2022/11/17 11:10:03;;;;;;;12.88;3.95;;;21.20;61.90;;;;;;4964959;28;92685;-82
2022/11/17 11:12:38;;;;;;;13.55;4.45;;;21.20;62.70;;;;;;4965657;28;93963;-82
2022/11/17 11:15:07;;;;;;;9.50;3.60;;;21.30;61.80;;;;;;4965735;28;92051;-81
2022/11/17 11:17:33;;;;;;;12.50;4.22;;;21.40;61.50;;;;;;4964233;28;93392;-82
2022/11/17 11:19:59;;;;;;;18.15;4.45;;;21.40;61.80;;;;;;4964388;28;93280;-82
2022/11/17 11:22:39;;;;;;;17.00;4.32;;;21.30;61.80;;;;;;4965323;28;92101;-83
2022/11/17 11:25:26;;;;;;;13.48;3.88;;;21.50;62.00;;;;;;4969235;28;92464;-82
2022/11/17 11:28:41;;;;;;;10.68;3.65;;;21.50;61.70;;;;;;4969506;28;92809;-83
2022/11/17 11:31:44;;;;;;;10.55;3.60;;;21.40;62.00;;;;;;4927165;28;93362;-83
2022/11/17 11:34:53;;;;;;;11.80;4.15;;;21.30;62.20;;;;;;4927894;28;92302;-83
2022/11/17 11:37:24;;;;;;;15.02;4.50;;;21.40;62.20;;;;;;4927751;28;92359;-82
2022/11/17 11:39:59;;;;;;;14.20;3.20;;;21.50;61.90;;;;;;4927465;28;94180;-83
2022/11/17 11:42:42;;;;;;;14.05;3.90;;;21.40;62.00;;;;;;4927528;28;93802;-83
2022/11/17 11:45:17;;;;;;;12.80;4.10;;;21.30;61.80;;;;;;4928229;28;92882;-82
2022/11/17 11:48:02;;;;;;;15.63;4.35;;;21.30;61.90;;;;;;4926835;28;92345;-82
2022/11/17 11:50:34;;;;;;;10.57;3.92;;;21.40;61.80;;;;;;4925784;28;93546;-82
2022/11/17 11:53:10;;;;;;;16.48;3.97;;;21.40;61.90;;;;;;4926329;28;93273;-81
2022/11/17 11:55:38;;;;;;;15.20;4.70;;;21.50;60.20;;;;;;4925579;28;92315;-83
2022/11/17 11:58:36;;;;;;;20.85;5.47;;;21.50;60.80;;;;;;4925229;28;91795;-82
2022/11/17 12:01:05;;;;;;;19.80;4.78;;;21.50;61.40;;;;;;4877168;28;92794;-82
2022/11/17 12:03:39;;;;;;;;;;;21.40;61.20;;;;;;4877166;28;93915;-82
2022/11/17 12:06:52;;;;;;;37.92;8.00;;;21.40;57.70;;;;;;4879200;28;93844;-82
2022/11/17 12:09:30;;;;;;;26.92;7.13;;;21.40;57.00;;;;;;4830968;29;93112;-83
2022/11/17 12:12:00;;;;;;;27.55;5.85;;;21.40;57.30;;;;;;4830159;29;94030;-82
2022/11/17 12:14:28;;;;;;;22.40;5.53;;;21.40;58.50;;;;;;4829398;29;92838;-82
2022/11/17 12:17:05;;;;;;;21.70;5.85;;;21.30;59.60;;;;;;4845817;28;92671;-82
2022/11/17 12:19:54;;;;;;;24.30;5.82;;;21.20;59.70;;;;;;4829924;29;92675;-81
2022/11/17 12:22:39;;;;;;;29.08;6.03;;;21.10;59.80;;;;;;4829391;29;93094;-82
2022/11/17 12:25:20;;;;;;;21.58;5.72;;;21.30;59.80;;;;;;4829187;29;93398;-81
2022/11/17 12:27:51;;;;;;;30.55;5.55;;;21.20;60.40;;;;;;4829405;29;92488;-82
2022/11/17 12:30:32;;;;;;;23.30;5.03;;;21.20;59.70;;;;;;4829378;29;92558;-82
2022/11/17 12:32:59;;;;;;;16.38;4.68;;;21.20;59.80;;;;;;4828283;29;94083;-81
2022/11/17 12:35:29;;;;;;;18.58;4.68;;;21.20;59.70;;;;;;4827525;29;96059;-81
2022/11/17 12:38:14;;;;;;;18.95;5.40;;;21.30;59.60;;;;;;4852999;28;92570;-81
2022/11/17 12:40:43;;;;;;;16.13;4.25;;;21.30;59.50;;;;;;4866150;28;93259;-81
2022/11/17 12:43:14;;;;;;;19.52;4.50;;;21.30;59.10;;;;;;4903166;28;93239;-81
2022/11/17 12:45:52;;;;;;;19.80;4.63;;;21.20;59.10;;;;;;4943642;28;92361;-81
2022/11/17 12:48:27;;;;;;;18.90;4.32;;;21.20;59.40;;;;;;4966556;28;92207;-81
2022/11/17 12:51:20;;;;;;;20.05;4.93;;;21.20;59.70;;;;;;4965159;28;91465;-80
2022/11/17 12:54:11;;;;;;;18.15;4.60;;;21.30;60.10;;;;;;4965270;28;93692;-80
2022/11/17 12:56:46;;;;;;;17.00;4.28;;;21.30;60.20;;;;;;4964376;28;92835;-80
2022/11/17 12:59:36;;;;;;;21.52;5.32;;;21.30;60.10;;;;;;4964974;28;93510;-80
2022/11/17 13:02:30;;;;;;;13.48;4.82;;;21.20;59.80;;;;;;4964738;28;92597;-80
2022/11/17 13:05:02;;;;;;;14.68;4.32;;;21.20;60.30;;;;;;4964292;28;93199;-80
2022/11/17 13:07:28;;;;;;;22.20;4.45;;;21.20;60.10;;;;;;4996231;27;96128;-80
2022/11/17 13:09:56;;;;;;;16.52;4.20;;;21.20;60.30;;;;;;4964222;28;92368;-80
2022/11/17 13:12:29;;;;;;;17.95;4.90;;;21.20;60.00;;;;;;4965315;28;92607;-80
2022/11/17 13:14:55;;;;;;;18.00;4.47;;;21.10;60.10;;;;;;4964435;28;93904;-80
2022/11/17 13:17:27;;;;;;;15.73;4.35;;;21.20;60.30;;;;;;4962880;28;92749;-80
2022/11/17 13:20:16;;;;;;;16.17;4.38;;;21.20;60.20;;;;;;4963961;28;92745;-80
2022/11/17 13:22:41;;;;;;;14.53;4.17;;;21.10;60.00;;;;;;4965032;28;92251;-81
2022/11/17 13:25:21;;;;;;;15.23;4.03;;;21.20;60.10;;;;;;4964432;28;94068;-81
2022/11/17 13:27:47;;;;;;;16.65;3.92;;;21.10;59.90;;;;;;4964236;28;94157;-81
2022/11/17 13:30:22;;;;;;;13.15;3.78;;;21.10;60.10;;;;;;4966684;28;92572;-80
2022/11/17 13:32:48;;;;;;;12.68;3.70;;;21.10;60.10;;;;;;4963330;28;92465;-81
2022/11/17 13:35:24;;;;;;;16.42;4.32;;;21.10;60.00;;;;;;4964190;28;92979;-81